ADDS METAR Data INFO
IDs: Format: Raw Decoded Include TAF

Data at: 1359 UTC 17 Dec 2017

K8W2 171355Z AUTO 00000KT 10SM CLR M01/M04 A3023 RMK AO1 T10111036
K8W2 171335Z AUTO 00000KT 10SM CLR M02/M04 A3025 RMK AO1 T10171044
K8W2 171315Z AUTO 00000KT 10SM CLR M02/M04 A3025 RMK AO1 T10221045
K8W2 171255Z AUTO 00000KT 10SM CLR M02/M05 A3025 RMK AO1 T10231050
K8W2 171235Z AUTO 00000KT 10SM CLR M03/M05 A3024 RMK AO1 T10261053
K8W2 171215Z AUTO 20004KT 10SM CLR M03/M05 A3024 RMK AO1 T10271053
K8W2 171155Z AUTO 22006KT 10SM CLR M03/M06 A3023 RMK AO1 T10301058 11030 21061
K8W2 171140Z AUTO 00000KT 10SM CLR M04/M06 A3022 RMK AO1 T10361058
K8W2 171115Z AUTO 00000KT 10SM CLR M03/M06 A3021 RMK AO1 T10321060
K8W2 171055Z AUTO 00000KT 10SM CLR M04/M06 A3021 RMK AO1 T10391062
K8W2 171035Z AUTO 24003KT 10SM CLR M04/M06 A3022 RMK AO1 T10401062
K8W2 171015Z AUTO 00000KT 10SM CLR M04/M06 A3023 RMK AO1 T10421062
K8W2 170955Z AUTO 22005KT 10SM CLR M04/M06 A3022 RMK AO1 T10391065
K8W2 170935Z AUTO 24004KT 10SM CLR M05/M07 A3022 RMK AO1 T10471066
K8W2 170915Z AUTO 00000KT 7SM CLR M05/M07 A3022 RMK AO1 T10551069
K8W2 170855Z AUTO 00000KT 5SM CLR M05/M07 A3023 RMK AO1 T10511069
K8W2 170835Z AUTO 00000KT 10SM CLR M06/M08 A3023 RMK AO1 T10611079
K8W2 170815Z AUTO 00000KT 7SM CLR M04/M06 A3023 RMK AO1 T10451063
K8W2 170755Z AUTO 00000KT 7SM CLR M05/M07 A3022 RMK AO1 T10521069
K8W2 170735Z AUTO 00000KT 5SM CLR M05/M07 A3021 RMK AO1 T10481070
K8W2 170715Z AUTO 00000KT 7SM CLR M05/M07 A3021 RMK AO1 T10501070
K8W2 170655Z AUTO 00000KT 5SM CLR M05/M07 A3020 RMK AO1 T10501066
K8W2 170635Z AUTO 00000KT 10SM CLR M04/M06 A3019 RMK AO1 T10431064
K8W2 170615Z AUTO 00000KT 10SM CLR M04/M06 A3019 RMK AO1 T10361062
K8W2 170555Z AUTO 23005KT 10SM CLR M04/M06 A3018 RMK AO1 T10441063 10025 21050
K8W2 170535Z AUTO 00000KT 10SM CLR M04/M06 A3018 RMK AO1 T10431065
K8W2 170515Z AUTO 00000KT 10SM CLR M04/M06 A3017 RMK AO1 T10371057
K8W2 170455Z AUTO 00000KT 10SM CLR M04/M06 A3017 RMK AO1 T10361058
K8W2 170435Z AUTO 00000KT 10SM CLR M03/M06 A3018 RMK AO1 T10341060
K8W2 170415Z AUTO 00000KT 10SM CLR M04/M06 A3018 RMK AO1 T10401064
K8W2 170355Z AUTO 00000KT 10SM CLR M04/M06 A3017 RMK AO1 T10361061 400951043
K8W2 170335Z AUTO 00000KT 10SM CLR M03/M06 A3017 RMK AO1 T10311057
K8W2 170315Z AUTO 00000KT 10SM CLR M04/M06 A3016 RMK AO1 T10401064
K8W2 170255Z AUTO 00000KT 10SM CLR M04/M06 A3015 RMK AO1 T10361059
K8W2 170235Z AUTO 00000KT 10SM CLR M02/M06 A3014 RMK AO1 T10251056
K8W2 170215Z AUTO 00000KT 10SM CLR M02/M05 A3014 RMK AO1 T10221054
K8W2 170155Z AUTO 00000KT 10SM CLR M02/M05 A3014 RMK AO1 T10181050
K8W2 170135Z AUTO 00000KT 10SM CLR M03/M05 A3014 RMK AO1 T10261053
K8W2 170115Z AUTO 00000KT 10SM CLR M01/M05 A3012 RMK AO1 T10131055
K8W2 170055Z AUTO 00000KT 10SM CLR 00/M04 A3012 RMK AO1 T10051045
K8W2 170035Z AUTO 00000KT 10SM CLR M02/M05 A3012 RMK AO1 T10181054
K8W2 170015Z AUTO 24006KT 10SM CLR 01/M04 A3010 RMK AO1 T00141045
K8W2 162355Z AUTO 00000KT 10SM CLR 00/M05 A3010 RMK AO1 T00031047 10095 20000
K8W2 162335Z AUTO 00000KT 10SM CLR 01/M04 A3010 RMK AO1 T00061045
K8W2 162315Z AUTO 00000KT 10SM CLR 00/M05 A3009 RMK AO1 T00041047
K8W2 162255Z AUTO 00000KT 10SM CLR 01/M04 A3008 RMK AO1 T00111045
K8W2 162235Z AUTO 00000KT 10SM CLR 04/M05 A3007 RMK AO1 T00401047
K8W2 162215Z AUTO 23003KT 10SM CLR 05/M05 A3006 RMK AO1 T00541046
K8W2 162155Z AUTO 23003KT 10SM CLR 06/M05 A3005 RMK AO1 T00621046
K8W2 162135Z AUTO 22004KT 10SM CLR 08/M05 A3004 RMK AO1 T00821049
K8W2 162115Z AUTO 22004KT 10SM CLR 09/M05 A3003 RMK AO1 T00881050
K8W2 162055Z AUTO 22006KT 10SM CLR 09/M05 A3003 RMK AO1 T00911051
K8W2 162035Z AUTO 20006KT 10SM CLR 10/M05 A3003 RMK AO1 T00951051
K8W2 162015Z AUTO 20007KT 10SM CLR 09/M05 A3003 RMK AO1 T00931052
K8W2 161955Z AUTO 22007KT 10SM CLR 09/M06 A3003 RMK AO1 T00931058
K8W2 161935Z AUTO 20008KT 10SM CLR 09/M06 A3003 RMK AO1 T00921056
K8W2 161915Z AUTO 21007KT 10SM CLR 09/M06 A3003 RMK AO1 T00891057
K8W2 161855Z AUTO 21008KT 190V250 10SM CLR 09/M06 A3003 RMK AO1 T00871060
K8W2 161835Z AUTO 21007G14KT 10SM CLR 08/M06 A3003 RMK AO1 T00791065
K8W2 161815Z AUTO 19006KT 10SM CLR 08/M06 A3004 RMK AO1 T00771064
K8W2 161755Z AUTO 21006KT 10SM CLR 07/M07 A3005 RMK AO1 T00721066 10073 21032
K8W2 161735Z AUTO 20006KT 10SM CLR 07/M06 A3005 RMK AO1 T00711062
K8W2 161715Z AUTO 21009G17KT 10SM CLR 07/M07 A3006 RMK AO1 T00661067
K8W2 161655Z AUTO 20012G17KT 10SM CLR 06/M07 A3007 RMK AO1 T00581069
K8W2 161635Z AUTO 20011G16KT 10SM CLR 05/M07 A3008 RMK AO1 T00521070
K8W2 161615Z AUTO 21009G14KT 10SM CLR 05/M07 A3008 RMK AO1 T00471072
K8W2 161555Z AUTO 20008G14KT 10SM CLR 05/M07 A3010 RMK AO1 T00451071
K8W2 161535Z AUTO 21010G14KT 10SM CLR 04/M07 A3010 RMK AO1 T00361073
K8W2 161515Z AUTO 21009KT 10SM CLR 03/M08 A3011 RMK AO1 T00301076
K8W2 161455Z AUTO 23004KT 10SM CLR 03/M08 A3011 RMK AO1 T00251076
K8W2 161435Z AUTO 22008KT 10SM CLR 02/M08 A3011 RMK AO1 T00161076
K8W2 161415Z AUTO 23006KT 10SM CLR 01/M08 A3010 RMK AO1 T00061078
K8W2 161355Z AUTO 25005KT 10SM CLR 00/M08 A3010 RMK AO1 T00001080
K8W2 161335Z AUTO 24006KT 10SM CLR 00/M08 A3010 RMK AO1 T10031083
K8W2 161315Z AUTO 25008KT 10SM SCT050 M01/M08 A3010 RMK AO1 T10071084
K8W2 161255Z AUTO 24003KT 10SM BKN050 BKN100 M01/M08 A3010 RMK AO1 T10141084
K8W2 161235Z AUTO 27006KT 10SM BKN055 BKN100 M01/M08 A3010 RMK AO1 T10101084
K8W2 161215Z AUTO 25004KT 10SM SCT055 M01/M08 A3010 RMK AO1 T10121083
K8W2 161155Z AUTO 00000KT 10SM SCT049 M01/M08 A3008 RMK AO1 T10141083 10000 21041
K8W2 161135Z AUTO 00000KT 10SM BKN049 M04/M08 A3008 RMK AO1 T10371076
K8W2 161115Z AUTO 00000KT 10SM BKN049 M03/M08 A3007 RMK AO1 T10311076
K8W2 161055Z AUTO 00000KT 10SM OVC049 M03/M08 A3007 RMK AO1 T10261076
K8W2 161035Z AUTO 00000KT 10SM OVC047 M02/M07 A3007 RMK AO1 T10221075
K8W2 161015Z AUTO 00000KT 10SM OVC047 M02/M08 A3007 RMK AO1 T10251076
K8W2 160955Z AUTO 00000KT 10SM OVC047 M03/M08 A3007 RMK AO1 T10281077
K8W2 160935Z AUTO 00000KT 10SM BKN047 M01/M08 A3006 RMK AO1 T10111085
K8W2 160915Z AUTO 00000KT 10SM BKN047 M01/M09 A3005 RMK AO1 T10151086
K8W2 160855Z AUTO 00000KT 10SM BKN045 BKN050 00/M09 A3005 RMK AO1 T10051090
K8W2 160835Z AUTO 00000KT 10SM OVC045 00/M09 A3005 RMK AO1 T10041089
K8W2 160815Z AUTO 25003KT 10SM OVC047 00/M09 A3005 RMK AO1 T00001094
K8W2 160755Z AUTO 27005KT 10SM OVC047 M01/M09 A3005 RMK AO1 T10141087
K8W2 160735Z AUTO 28003KT 10SM OVC049 M01/M09 A3004 RMK AO1 T10151089
K8W2 160715Z AUTO 26004KT 10SM OVC047 M01/M09 A3003 RMK AO1 T10071095
K8W2 160655Z AUTO 24004KT 10SM OVC047 00/M10 A3002 RMK AO1 T10021097
K8W2 160635Z AUTO 00000KT 10SM OVC047 M01/M09 A3002 RMK AO1 T10101095
K8W2 160615Z AUTO 00000KT 10SM OVC047 00/M10 A3002 RMK AO1 T10041096
K8W2 160555Z AUTO 00000KT 10SM BKN047 M01/M10 A3001 RMK AO1 T10121096 10001 21032
K8W2 160535Z AUTO 26004KT 10SM BKN049 00/M10 A3001 RMK AO1 T10011100
K8W2 160515Z AUTO 24010G16KT 10SM BKN049 00/M10 A3001 RMK AO1 T10041100
K8W2 160455Z AUTO 24006KT 10SM OVC049 M01/M10 A3001 RMK AO1 T10121096
K8W2 160435Z AUTO 27003KT 10SM OVC049 M01/M10 A3000 RMK AO1 T10111097
K8W2 160415Z AUTO 26003KT 10SM OVC049 M01/M10 A2999 RMK AO1 T10111101
K8W2 160355Z AUTO 26004KT 10SM BKN049 M01/M10 A2999 RMK AO1 T10131101 400011051
K8W2 160335Z AUTO 25007KT 10SM SCT047 00/M10 A2998 RMK AO1 T10051105
K8W2 160315Z AUTO 25007KT 10SM CLR M02/M10 A2998 RMK AO1 T10171100
K8W2 160255Z AUTO 26006KT 10SM SCT050 M01/M10 A2998 RMK AO1 T10101104
K8W2 160235Z AUTO 26004KT 10SM CLR M01/M10 A2997 RMK AO1 T10141103
K8W2 160215Z AUTO 25005KT 10SM SCT050 M02/M09 A2997 RMK AO1 T10251094